메인 페이지
METAR-TAF:

METAR-TAF

공항 :

엘패소, 텍사스, 미국

위도: 31-48-40N, 경도: 106-22-33W, 고도: 1206m

현재 날씨관측

예보는 14분 전, 08:51시(UTC)에 발표되었습니다.
서남서14kt
온도 26°C
습도 6%
기압 1012 hPa
시정: 16.1km
맑음

METAR: KELP 250851Z 24014KT 10SM CLR 26/M14 A2989 RMK AO2 SLP038 T02561139 57001

시각: 04:05 (09:05 UTC)

예보

예보는 3 시간 23분 전, 05:42시(UTC)에 발표되었습니다.
예보 대상 시간: 25일 06시부터 26일 06시까지 (UTC)
서남서13kt
시정: 10km
고도 25000ft 상공 구름 조금
25일 1600시부터 (UTC)
서남서29kt, 순간 최대 풍속 38kt
시정: 10km
고도 25000ft 상공 구름 조금
26일 0300시부터 (UTC)
20kt, 순간 최대 풍속 28kt
시정: 10km
맑음

TAF: KELP 250542Z 2506/2606 24013KT P6SM FEW250 FM251600 25029G38KT P6SM FEW250 FM260300 27020G28KT P6SM SKC

4,000개 이상의 공항 관측 자료 및 예보 (METAR 및 TAF 보고).

지도상에서 검색 가능한 기상관측소가 노란 점과 빨간 점으로 표시되어 있습니다.

기상관측소 명을 보려면 표시 위로 마우스를 이동하세요.

날씨 관측과 예보를 보려면 클릭하세요.

지도 변경 : 확대하려면 엑스 표시가 있는 녹색 버튼, 축소하려면 빼기 표시가 있는 녹색 버튼, 다음 페이지의 지도를 보려면 녹색 화살표를 클릭하세요.


METAR-TAF: